Time;durP1;ratioP1;P1;durP2;ratioP2;P2;SDS_P1;SDS_P2;PMS_P1;PMS_P2;Temp;Humidity;BMP_temperature;BMP_pressure;BME280_temperature;BME280_humidity;BME280_pressure;Samples;Min_cycle;Max_cycle;Signal;HPM_P1;HPM_P2
2023/10/01 00:02:16;;;;;;;5.70;3.80;;;;;;;11.52;86.33;101911.19;5003731;28;20224;-75
2023/10/01 00:04:42;;;;;;;8.63;4.00;;;;;;;11.53;86.05;101912.75;5000810;28;20208;-72
2023/10/01 00:07:09;;;;;;;7.90;4.13;;;;;;;11.57;85.85;101903.16;4993840;28;20574;-75
2023/10/01 00:09:37;;;;;;;14.33;4.60;;;;;;;11.60;85.65;101898.06;4994133;28;20611;-76
2023/10/01 00:12:04;;;;;;;6.50;4.03;;;;;;;11.63;85.80;101904.63;4994381;28;20295;-73
2023/10/01 00:14:30;;;;;;;7.90;4.17;;;;;;;11.65;85.04;101900.59;4992036;28;20646;-72
2023/10/01 00:16:58;;;;;;;7.83;4.33;;;;;;;11.65;84.50;101903.25;4996152;28;20670;-73
2023/10/01 00:19:26;;;;;;;8.67;4.60;;;;;;;11.67;85.19;101913.53;4977383;28;20252;-74
2023/10/01 00:21:52;;;;;;;8.77;3.93;;;;;;;11.69;84.37;101909.50;4970448;28;20790;-73
2023/10/01 00:24:19;;;;;;;7.70;4.10;;;;;;;11.71;85.55;101904.72;4995337;28;20208;-73
2023/10/01 00:26:45;;;;;;;7.97;3.83;;;;;;;11.73;84.80;101915.78;4979960;28;20215;-73
2023/10/01 00:29:12;;;;;;;6.57;3.63;;;;;;;11.75;84.90;101913.59;5000203;28;20232;-74
2023/10/01 00:31:39;;;;;;;8.00;3.67;;;;;;;11.78;84.60;101917.50;4999490;28;20217;-73
2023/10/01 00:34:07;;;;;;;7.13;3.83;;;;;;;11.78;84.90;101913.00;4998823;28;20318;-74
2023/10/01 00:36:37;;;;;;;9.67;4.53;;;;;;;11.80;84.89;101905.53;4999102;28;20499;-73
2023/10/01 00:39:03;;;;;;;7.10;4.30;;;;;;;11.82;85.06;101902.59;4993150;28;20667;-74
2023/10/01 00:41:30;;;;;;;7.07;3.80;;;;;;;11.82;85.13;101894.66;4981399;28;20208;-76
2023/10/01 00:44:00;;;;;;;5.50;3.93;;;;;;;11.81;84.88;101895.75;4974377;28;20210;-73
2023/10/01 00:46:26;;;;;;;7.73;3.97;;;;;;;11.82;85.08;101890.16;4996768;28;20226;-76
2023/10/01 00:48:54;;;;;;;10.90;4.17;;;;;;;11.82;84.80;101879.56;4977364;28;20216;-73
2023/10/01 00:51:20;;;;;;;8.13;4.33;;;;;;;11.82;84.38;101890.16;4991513;28;20227;-76
2023/10/01 00:53:49;;;;;;;8.33;3.80;;;;;;;11.80;84.82;101879.06;4996871;28;21501;-73
2023/10/01 00:56:16;;;;;;;13.97;5.07;;;;;;;11.81;84.69;101888.56;4993956;28;20204;-75
2023/10/01 00:58:44;;;;;;;6.80;4.17;;;;;;;11.81;84.22;101883.28;4972907;28;20213;-73
2023/10/01 01:01:12;;;;;;;10.33;4.20;;;;;;;11.81;84.06;101877.22;4994653;28;20209;-73
2023/10/01 01:03:40;;;;;;;11.27;4.20;;;;;;;11.82;84.93;101874.28;4996144;28;20215;-72
2023/10/01 01:06:17;;;;;;;6.47;3.87;;;;;;;11.82;84.61;101876.91;4978601;28;20662;-72
2023/10/01 01:08:47;;;;;;;9.10;4.10;;;;;;;11.83;84.84;101872.41;4979135;28;20563;-73
2023/10/01 01:11:16;;;;;;;7.33;3.90;;;;;;;11.84;84.27;101860.72;4999707;28;20945;-72
2023/10/01 01:13:43;;;;;;;10.43;4.57;;;;;;;11.84;84.77;101864.16;4974620;28;20266;-73
2023/10/01 01:16:10;;;;;;;8.77;4.00;;;;;;;11.86;84.99;101863.88;4980229;28;20949;-74
2023/10/01 01:18:37;;;;;;;11.43;4.33;;;;;;;11.87;84.59;101862.78;4991660;28;20232;-74
2023/10/01 01:21:09;;;;;;;11.97;4.20;;;;;;;11.88;84.63;101856.38;4978820;28;20234;-72
2023/10/01 01:23:37;;;;;;;6.83;4.20;;;;;;;11.91;85.29;101858.44;4996982;28;20204;-74
2023/10/01 01:26:04;;;;;;;7.93;4.07;;;;;;;11.92;85.43;101855.50;4996951;28;20206;-74
2023/10/01 01:28:31;;;;;;;6.60;3.93;;;;;;;11.93;84.30;101849.13;4977275;28;20224;-75
2023/10/01 01:30:59;;;;;;;9.80;4.77;;;;;;;11.94;84.50;101848.03;4976897;28;20225;-72
2023/10/01 01:33:31;;;;;;;10.53;4.20;;;;;;;11.95;84.12;101852.22;4995980;28;21339;-72
2023/10/01 01:35:58;;;;;;;9.17;4.10;;;;;;;11.97;83.92;101844.00;4996215;28;21643;-75
2023/10/01 01:38:24;;;;;;;10.50;3.90;;;;;;;11.98;84.13;101842.91;4981745;28;20763;-72
2023/10/01 01:40:52;;;;;;;8.97;4.27;;;;;;;11.98;83.84;101848.19;4991004;28;20628;-73
2023/10/01 01:43:22;;;;;;;11.53;4.10;;;;;;;12.00;84.55;101852.09;4997452;28;20887;-72
2023/10/01 01:45:54;;;;;;;12.90;3.90;;;;;;;12.00;83.78;101854.75;4996949;28;20193;-73
2023/10/01 01:48:30;;;;;;;15.83;4.23;;;;;;;12.03;83.92;101848.06;4976950;28;20707;-73
2023/10/01 01:50:58;;;;;;;9.53;3.97;;;;;;;12.06;84.21;101858.06;4975062;28;20229;-72
2023/10/01 01:53:26;;;;;;;8.30;4.30;;;;;;;12.08;83.79;101863.81;4978149;28;20233;-72
2023/10/01 01:55:56;;;;;;;12.40;3.80;;;;;;;12.08;84.00;101856.69;4992759;28;20261;-71
2023/10/01 01:58:24;;;;;;;9.13;3.70;;;;;;;12.11;83.49;101860.59;4977738;28;20319;-72
2023/10/01 02:01:17;;;;;;;9.63;3.73;;;;;;;12.13;83.79;101863.69;4975708;28;20348;-72
2023/10/01 02:03:50;;;;;;;10.73;3.63;;;;;;;12.13;83.60;101864.50;4978256;28;20207;-71
2023/10/01 02:06:26;;;;;;;7.17;3.83;;;;;;;12.14;83.98;101847.50;4982498;28;20207;-73
2023/10/01 02:08:54;;;;;;;10.80;3.67;;;;;;;12.16;83.69;101842.69;4991239;28;20213;-74
2023/10/01 02:11:22;;;;;;;8.67;3.50;;;;;;;12.17;83.59;101846.88;4976788;28;20874;-73
2023/10/01 02:13:51;;;;;;;7.30;3.60;;;;;;;12.18;82.30;101855.63;4995582;28;20224;-72
2023/10/01 02:16:35;;;;;;;7.20;3.73;;;;;;;12.17;82.51;101841.59;4997205;28;20229;-72
2023/10/01 02:19:17;;;;;;;5.20;3.70;;;;;;;12.19;82.39;101834.13;4977754;28;20308;-72
2023/10/01 02:21:48;;;;;;;9.33;3.53;;;;;;;12.18;81.55;101842.38;4977660;28;20214;-72
2023/10/01 02:24:19;;;;;;;4.73;3.47;;;;;;;12.19;81.61;101846.59;4992757;28;20321;-72
2023/10/01 02:26:48;;;;;;;11.83;4.13;;;;;;;12.19;80.97;101841.28;4992789;28;20613;-74
2023/10/01 02:29:16;;;;;;;8.87;3.80;;;;;;;12.21;80.97;101836.50;4975651;28;20233;-72
2023/10/01 02:31:48;;;;;;;8.20;3.87;;;;;;;12.22;81.09;101833.50;4992291;28;20615;-72
2023/10/01 02:34:15;;;;;;;7.07;3.57;;;;;;;12.21;80.11;101839.13;4994828;28;20208;-74
2023/10/01 02:36:42;;;;;;;8.33;3.30;;;;;;;12.23;80.90;101855.50;4998269;28;20205;-72
2023/10/01 02:39:11;;;;;;;6.83;3.63;;;;;;;12.25;81.09;101853.31;4980185;28;20225;-75
2023/10/01 02:41:40;;;;;;;6.97;3.23;;;;;;;12.25;80.69;101840.84;4980568;28;20217;-74
2023/10/01 02:44:10;;;;;;;7.07;3.47;;;;;;;12.27;80.88;101843.97;4998745;28;20208;-73
2023/10/01 02:46:37;;;;;;;6.30;3.20;;;;;;;12.28;80.54;101831.53;4990194;28;20547;-73
2023/10/01 02:49:05;;;;;;;7.30;3.20;;;;;;;12.29;80.68;101835.72;4986554;28;20234;-74
2023/10/01 02:51:37;;;;;;;5.57;3.07;;;;;;;12.29;80.81;101838.38;4987674;28;20221;-72
2023/10/01 02:54:05;;;;;;;8.20;3.80;;;;;;;12.30;81.19;101838.06;4992103;28;20218;-72
2023/10/01 02:56:37;;;;;;;7.23;3.27;;;;;;;12.31;80.30;101836.97;4969527;28;20806;-72
2023/10/01 02:59:09;;;;;;;10.90;3.50;;;;;;;12.30;80.52;101843.38;4989398;28;20221;-73
2023/10/01 03:01:39;;;;;;;6.43;3.00;;;;;;;12.32;80.31;101843.06;4971848;28;20752;-73
2023/10/01 03:04:10;;;;;;;7.03;3.43;;;;;;;12.34;80.76;101848.84;4969993;28;20295;-72
2023/10/01 03:06:42;;;;;;;5.53;3.40;;;;;;;12.34;81.07;101832.94;4972439;28;20646;-73
2023/10/01 03:09:22;;;;;;;7.80;3.53;;;;;;;12.35;81.15;101822.03;4973693;28;20228;-72
2023/10/01 03:11:53;;;;;;;8.50;3.57;;;;;;;12.35;80.46;101811.44;4990936;28;20207;-75
2023/10/01 03:14:25;;;;;;;10.03;4.07;;;;;;;12.36;81.04;101806.91;4976174;28;21064;-75
2023/10/01 03:16:53;;;;;;;7.37;3.53;;;;;;;12.36;80.38;101807.72;4992411;28;20212;-73
2023/10/01 03:19:25;;;;;;;5.00;3.43;;;;;;;12.38;80.07;101813.47;4991396;28;20338;-73
2023/10/01 03:24:42;;;;;;;5.90;3.63;;;;;;;12.40;79.83;101811.31;4990178;28;20675;-73
2023/10/01 03:27:20;;;;;;;8.83;3.50;;;;;;;12.40;79.43;101811.31;4992940;28;20199;-72
2023/10/01 03:29:51;;;;;;;6.37;3.20;;;;;;;12.41;80.22;101812.06;4991429;28;20327;-73
2023/10/01 03:32:28;;;;;;;8.20;4.00;;;;;;;12.41;80.10;101820.81;4991136;28;20324;-72
2023/10/01 03:34:55;;;;;;;4.93;3.43;;;;;;;12.40;79.60;101823.75;4992446;28;20203;-72
2023/10/01 03:37:27;;;;;;;6.03;3.03;;;;;;;12.40;79.30;101824.56;4994405;28;21161;-72
2023/10/01 03:40:03;;;;;;;5.73;3.37;;;;;;;12.43;79.54;101826.56;4992416;28;20467;-73
2023/10/01 03:42:33;;;;;;;9.17;3.50;;;;;;;12.43;79.55;101823.16;4993224;28;20221;-73
2023/10/01 03:45:19;;;;;;;7.97;3.57;;;;;;;12.46;80.13;101814.59;4979497;28;20306;-72
2023/10/01 03:47:51;;;;;;;8.23;3.50;;;;;;;12.47;79.74;101816.16;4973195;28;20226;-74
2023/10/01 03:50:20;;;;;;;8.07;3.63;;;;;;;12.46;79.42;101812.72;4977695;28;20781;-73
2023/10/01 03:52:54;;;;;;;5.07;3.03;;;;;;;12.46;79.49;101815.38;4995295;28;20274;-75
2023/10/01 03:55:26;;;;;;;9.07;3.53;;;;;;;12.47;79.79;101824.13;4995591;28;20242;-73
2023/10/01 03:58:05;;;;;;;7.07;3.40;;;;;;;12.48;79.67;101825.66;4971657;28;20221;-72
2023/10/01 04:00:32;;;;;;;8.83;3.30;;;;;;;12.46;79.20;101819.88;4991329;28;20223;-72
2023/10/01 04:03:00;;;;;;;8.43;3.70;;;;;;;12.47;79.89;101824.88;4990200;28;20228;-72
2023/10/01 04:05:31;;;;;;;7.83;3.67;;;;;;;12.47;79.83;101822.22;4968629;28;20216;-74
2023/10/01 04:08:10;;;;;;;8.63;3.60;;;;;;;12.47;79.97;101830.19;4988004;28;20258;-74
2023/10/01 04:10:39;;;;;;;9.83;3.40;;;;;;;12.47;79.60;101832.06;4990799;28;20309;-72
2023/10/01 04:13:13;;;;;;;7.23;3.50;;;;;;;12.49;80.43;101827.22;4988198;28;20239;-75
2023/10/01 04:15:45;;;;;;;10.67;3.43;;;;;;;12.49;80.45;101825.38;4968795;28;20809;-73
2023/10/01 04:18:21;;;;;;;5.43;3.40;;;;;;;12.49;79.86;101824.56;4987358;28;20206;-73
2023/10/01 04:21:12;;;;;;;8.40;4.33;;;;;;;12.48;78.84;101825.66;4972434;28;20698;-72
2023/10/01 04:23:40;;;;;;;7.23;4.00;;;;;;;12.47;79.19;101835.47;4990160;28;20207;-72
2023/10/01 04:26:08;;;;;;;6.97;3.50;;;;;;;12.47;79.22;101840.78;4991269;28;20261;-73
2023/10/01 04:28:35;;;;;;;7.87;3.47;;;;;;;12.49;79.44;101841.28;4985799;28;20209;-72
2023/10/01 04:31:03;;;;;;;8.70;3.70;;;;;;;12.49;79.64;101833.31;4993603;28;20360;-73
2023/10/01 04:33:31;;;;;;;7.87;3.97;;;;;;;12.49;79.51;101828.03;4990729;28;20232;-73
2023/10/01 04:35:59;;;;;;;7.07;4.10;;;;;;;12.50;79.65;101824.28;4991385;28;20211;-74
2023/10/01 04:38:29;;;;;;;6.93;3.93;;;;;;;12.51;79.92;101817.88;4990512;28;20642;-75
2023/10/01 04:40:55;;;;;;;6.33;3.77;;;;;;;12.50;79.39;101816.31;4991970;28;20235;-72
2023/10/01 04:43:25;;;;;;;7.97;3.57;;;;;;;12.51;79.49;101809.94;4989433;28;20247;-73
2023/10/01 04:45:52;;;;;;;6.60;3.60;;;;;;;12.49;78.79;101808.69;4990209;28;20214;-72
2023/10/01 04:48:23;;;;;;;9.43;4.00;;;;;;;12.50;78.71;101807.59;4987656;28;20208;-75
2023/10/01 04:50:53;;;;;;;7.80;3.90;;;;;;;12.50;79.16;101800.44;4991569;28;20214;-72
2023/10/01 04:53:22;;;;;;;8.53;3.50;;;;;;;12.50;78.32;101789.03;4992508;28;20245;-72
2023/10/01 04:56:00;;;;;;;9.47;3.77;;;;;;;12.49;78.25;101787.50;4991354;28;20966;-74
2023/10/01 04:58:32;;;;;;;7.60;3.40;;;;;;;12.48;77.81;101786.69;4991344;28;20275;-75
2023/10/01 05:01:02;;;;;;;8.03;3.33;;;;;;;12.48;78.33;101788.59;4989745;28;20227;-77
2023/10/01 05:03:38;;;;;;;8.07;3.23;;;;;;;12.46;78.06;101791.53;4973939;28;20300;-75
2023/10/01 05:06:08;;;;;;;7.30;3.37;;;;;;;12.45;78.09;101797.13;4989543;28;20217;-75
2023/10/01 05:08:39;;;;;;;5.67;3.73;;;;;;;12.42;78.17;101792.47;4991711;28;20211;-75
2023/10/01 05:11:10;;;;;;;7.27;3.30;;;;;;;12.39;78.12;101801.03;4985039;28;20525;-73
2023/10/01 05:13:39;;;;;;;10.17;3.60;;;;;;;12.34;78.71;101811.75;4973623;28;20316;-72
2023/10/01 05:16:06;;;;;;;8.10;3.70;;;;;;;12.31;78.79;101815.03;4991329;28;20234;-73
2023/10/01 05:18:35;;;;;;;9.10;3.40;;;;;;;12.29;79.90;101815.34;4992299;28;20268;-73
2023/10/01 05:21:09;;;;;;;9.80;3.70;;;;;;;12.26;79.30;101823.09;4990088;28;20248;-75
2023/10/01 05:23:37;;;;;;;7.00;3.70;;;;;;;12.22;79.38;101830.88;4993899;28;20845;-74
2023/10/01 05:26:06;;;;;;;6.17;4.13;;;;;;;12.20;79.42;101824.31;4993110;28;20450;-74
2023/10/01 05:28:34;;;;;;;9.00;3.80;;;;;;;12.19;79.58;101830.69;4992579;28;20690;-73
2023/10/01 05:31:08;;;;;;;10.40;4.10;;;;;;;12.20;79.85;101827.75;4991790;28;20217;-73
2023/10/01 05:33:35;;;;;;;7.67;3.47;;;;;;;12.22;80.16;101833.50;4993982;28;20240;-75
2023/10/01 05:36:11;;;;;;;8.93;3.50;;;;;;;12.23;80.10;101845.69;4992736;28;20213;-75
2023/10/01 05:38:39;;;;;;;7.03;3.93;;;;;;;12.26;80.54;101839.75;4992655;28;20209;-74
2023/10/01 05:41:09;;;;;;;7.90;3.33;;;;;;;12.30;80.07;101837.28;4991161;28;20201;-74
2023/10/01 05:43:37;;;;;;;8.33;4.30;;;;;;;12.33;80.56;101837.47;4992854;28;20210;-73
2023/10/01 05:46:08;;;;;;;7.60;4.07;;;;;;;12.36;80.23;101841.34;4971858;28;20594;-72
2023/10/01 05:48:35;;;;;;;7.03;3.30;;;;;;;12.40;79.69;101832.50;4992867;28;21248;-73
2023/10/01 05:51:06;;;;;;;10.53;4.03;;;;;;;12.44;79.71;101836.09;4991311;28;20226;-73
2023/10/01 05:53:33;;;;;;;8.87;4.17;;;;;;;12.47;79.30;101837.38;4973519;28;20225;-72
2023/10/01 05:56:07;;;;;;;8.87;3.80;;;;;;;12.52;79.17;101838.00;4972280;28;20307;-72
2023/10/01 05:58:34;;;;;;;10.90;3.70;;;;;;;12.58;79.77;101847.34;4990128;28;20206;-73
2023/10/01 06:01:13;;;;;;;12.63;4.10;;;;;;;12.62;79.28;101844.88;4995224;28;20226;-73
2023/10/01 06:03:40;;;;;;;8.20;4.20;;;;;;;12.67;79.03;101842.06;4996755;28;20206;-74
2023/10/01 06:06:09;;;;;;;9.97;3.40;;;;;;;12.70;78.23;101849.41;4981571;28;20217;-74
2023/10/01 06:08:46;;;;;;;7.93;3.70;;;;;;;12.73;77.98;101836.31;4996980;28;20603;-73
2023/10/01 06:11:15;;;;;;;7.70;3.50;;;;;;;12.77;77.98;101839.13;4995916;28;20756;-74
2023/10/01 06:13:50;;;;;;;7.47;3.50;;;;;;;12.78;77.30;101841.47;4998158;28;20226;-73
2023/10/01 06:16:22;;;;;;;8.10;3.53;;;;;;;12.80;77.64;101852.56;4997042;28;20206;-72
2023/10/01 06:18:52;;;;;;;6.60;3.50;;;;;;;12.85;77.51;101841.03;4997672;28;20230;-74
2023/10/01 06:21:23;;;;;;;7.03;3.53;;;;;;;12.89;77.53;101841.97;4991404;28;20215;-74
2023/10/01 06:23:50;;;;;;;10.53;3.60;;;;;;;12.92;77.09;101844.00;4977097;28;21633;-74
2023/10/01 06:26:29;;;;;;;6.47;3.47;;;;;;;12.95;76.93;101844.16;4995946;28;20688;-74
2023/10/01 06:29:00;;;;;;;5.83;3.40;;;;;;;13.01;77.02;101848.25;4977832;28;20216;-72
2023/10/01 06:31:47;;;;;;;8.77;3.67;;;;;;;13.07;76.76;101843.56;4977220;28;20219;-72
2023/10/01 06:34:14;;;;;;;8.13;3.63;;;;;;;13.16;76.90;101831.09;4994134;28;20711;-72
2023/10/01 06:36:43;;;;;;;12.60;3.90;;;;;;;13.25;76.78;101827.34;4975270;28;20210;-73
2023/10/01 06:39:19;;;;;;;5.40;3.10;;;;;;;13.34;76.04;101837.97;4995734;28;20671;-73
2023/10/01 06:41:48;;;;;;;7.93;3.40;;;;;;;13.40;76.06;101840.16;4977397;28;20584;-73
2023/10/01 06:44:15;;;;;;;7.97;3.60;;;;;;;13.45;75.42;101833.91;4973674;28;21756;-73
2023/10/01 06:46:42;;;;;;;6.87;3.40;;;;;;;13.52;75.17;101834.22;4997422;28;20218;-73
2023/10/01 06:49:09;;;;;;;9.27;3.93;;;;;;;13.59;75.35;101837.94;4999132;28;20261;-73
2023/10/01 06:51:43;;;;;;;6.83;3.80;;;;;;;13.67;74.31;101842.44;4996668;28;20242;-73
2023/10/01 06:54:12;;;;;;;7.93;3.20;;;;;;;13.73;74.67;101841.22;4996021;28;20290;-73
2023/10/01 06:56:44;;;;;;;6.10;3.20;;;;;;;13.81;74.12;101836.97;4996304;28;20214;-73
2023/10/01 06:59:17;;;;;;;8.47;3.20;;;;;;;13.86;73.28;101840.22;4980759;28;20790;-73
2023/10/01 07:01:48;;;;;;;6.07;3.17;;;;;;;13.94;73.80;101844.75;4996265;28;20212;-72
2023/10/01 07:04:17;;;;;;;4.57;3.23;;;;;;;14.04;73.17;101849.72;4995890;28;20696;-73
2023/10/01 07:06:50;;;;;;;7.10;3.67;;;;;;;14.13;72.63;101839.06;4990014;28;20209;-73
2023/10/01 07:09:32;;;;;;;5.63;2.83;;;;;;;14.22;72.31;101851.25;4991637;28;20216;-73
2023/10/01 07:12:00;;;;;;;6.53;3.20;;;;;;;14.31;72.38;101843.22;4995473;28;20693;-73
2023/10/01 07:14:44;;;;;;;5.53;3.07;;;;;;;14.40;72.19;101850.09;4994397;28;20254;-73
2023/10/01 07:17:14;;;;;;;4.10;2.60;;;;;;;14.46;70.79;101853.31;4996120;28;20294;-73
2023/10/01 07:19:41;;;;;;;5.90;3.13;;;;;;;14.53;71.26;101854.38;4995403;28;20220;-73
2023/10/01 07:22:09;;;;;;;10.07;3.27;;;;;;;14.62;71.12;101839.19;4974308;28;20231;-73
2023/10/01 07:24:35;;;;;;;5.73;3.03;;;;;;;14.71;70.72;101842.56;4993710;28;20345;-73
2023/10/01 07:27:06;;;;;;;6.33;2.77;;;;;;;14.79;71.02;101844.38;4994970;28;20242;-73
2023/10/01 07:29:35;;;;;;;4.90;2.67;;;;;;;14.90;70.68;101834.16;4994674;28;20346;-73
2023/10/01 07:32:07;;;;;;;8.20;3.07;;;;;;;15.01;71.30;101832.66;4992318;28;20228;-73
2023/10/01 07:34:35;;;;;;;6.03;2.93;;;;;;;15.10;70.67;101836.03;4976235;28;20639;-73
2023/10/01 07:37:04;;;;;;;4.77;2.80;;;;;;;15.21;70.36;101835.31;4987468;28;20578;-74
2023/10/01 07:39:36;;;;;;;5.13;2.63;;;;;;;15.31;69.54;101820.84;4987914;28;20920;-72
2023/10/01 07:42:04;;;;;;;5.67;2.90;;;;;;;15.39;67.40;101831.44;4969042;28;20242;-71
2023/10/01 07:44:31;;;;;;;5.83;2.87;;;;;;;15.47;67.71;101838.56;4980735;28;20201;-74
2023/10/01 07:47:00;;;;;;;7.80;3.63;;;;;;;15.58;67.42;101834.38;4984628;28;20222;-71
2023/10/01 07:49:41;;;;;;;8.83;3.87;;;;;;;15.69;67.56;101835.50;4985106;28;21197;-73
2023/10/01 07:52:10;;;;;;;5.03;2.97;;;;;;;15.81;68.08;101845.44;4967388;28;20805;-73
2023/10/01 07:54:36;;;;;;;5.13;2.43;;;;;;;15.91;66.42;101837.81;4998612;28;20238;-74
2023/10/01 07:57:08;;;;;;;5.80;2.43;;;;;;;15.98;67.56;101846.03;4985434;28;20433;-73
2023/10/01 07:59:35;;;;;;;7.40;2.90;;;;;;;16.05;66.79;101846.25;5001078;28;22204;-73
2023/10/01 08:02:19;;;;;;;7.00;2.60;;;;;;;16.11;66.44;101844.16;5004027;28;20921;-72
2023/10/01 08:04:59;;;;;;;7.37;2.67;;;;;;;16.17;66.16;101851.63;5005508;28;20237;-73
2023/10/01 08:07:31;;;;;;;7.00;2.77;;;;;;;16.21;65.41;101847.19;5002292;28;20706;-74
2023/10/01 08:09:59;;;;;;;4.70;2.37;;;;;;;16.26;65.63;101854.94;4998213;28;20250;-73
2023/10/01 08:12:58;;;;;;;5.60;2.30;;;;;;;16.32;65.44;101848.28;5004297;28;20222;-72
2023/10/01 08:15:29;;;;;;;4.33;2.20;;;;;;;16.39;65.05;101853.88;4987206;28;20239;-71
2023/10/01 08:18:19;;;;;;;8.70;2.57;;;;;;;16.45;65.86;101857.09;4984066;28;20269;-74
2023/10/01 08:20:58;;;;;;;4.17;1.90;;;;;;;16.52;63.85;101851.97;5001199;28;20344;-73
2023/10/01 08:23:28;;;;;;;6.57;2.10;;;;;;;16.56;65.02;101853.63;5002386;28;21403;-73
2023/10/01 08:25:55;;;;;;;6.70;2.30;;;;;;;16.60;63.46;101857.19;4997727;28;20208;-71
2023/10/01 08:28:27;;;;;;;5.80;2.60;;;;;;;16.65;63.77;101851.63;5001655;28;20204;-74
2023/10/01 08:31:20;;;;;;;6.80;2.20;;;;;;;16.69;64.08;101851.75;4984780;28;20239;-72
2023/10/01 08:34:22;;;;;;;3.97;2.13;;;;;;;16.77;63.76;101850.84;5003445;28;20215;-73
2023/10/01 08:36:42;;;;;;;4.73;2.20;;;;;;;16.82;61.88;101848.72;5003195;28;20208;-73
2023/10/01 08:41:59;;;;;;;5.13;2.47;;;;;;;17.01;63.19;101856.13;4970812;28;20546;-72
2023/10/01 08:44:33;;;;;;;4.00;2.07;;;;;;;17.11;62.60;101856.44;5002277;28;20814;-72
2023/10/01 08:47:21;;;;;;;5.33;2.00;;;;;;;17.21;62.25;101855.19;5005687;28;20221;-73
2023/10/01 08:49:51;;;;;;;7.93;2.20;;;;;;;17.30;61.57;101848.59;5008006;28;20227;-73
2023/10/01 08:52:21;;;;;;;4.67;2.00;;;;;;;17.42;62.42;101847.78;5007236;28;20928;-73
2023/10/01 08:54:53;;;;;;;5.90;1.90;;;;;;;17.55;60.92;101851.97;5009949;28;20733;-73
2023/10/01 08:57:36;;;;;;;4.67;2.03;;;;;;;17.66;59.49;101847.69;4994230;28;20822;-73
2023/10/01 09:00:14;;;;;;;5.23;2.00;;;;;;;17.75;58.55;101840.31;4979767;28;20231;-73
2023/10/01 09:02:50;;;;;;;4.03;1.70;;;;;;;17.88;60.39;101839.09;4993342;28;20210;-73
2023/10/01 09:05:23;;;;;;;4.40;1.87;;;;;;;17.99;59.29;101837.47;4988976;28;20297;-73
2023/10/01 09:07:51;;;;;;;6.07;2.50;;;;;;;18.11;59.68;101830.13;5004713;28;20226;-73
2023/10/01 09:10:19;;;;;;;4.80;1.90;;;;;;;18.19;57.52;101831.88;5004906;28;20768;-73
2023/10/01 09:12:49;;;;;;;2.83;1.60;;;;;;;18.31;59.66;101825.66;5007810;28;20208;-73
2023/10/01 09:15:27;;;;;;;4.60;1.70;;;;;;;18.41;56.26;101833.16;5005060;28;20902;-73
2023/10/01 09:17:57;;;;;;;5.73;1.60;;;;;;;18.54;56.39;101845.31;5006123;28;20256;-73
2023/10/01 09:21:03;;;;;;;4.87;1.63;;;;;;;18.64;56.05;101832.19;5003308;28;20224;-73
2023/10/01 09:23:54;;;;;;;8.23;2.30;;;;;;;18.77;56.38;101828.25;5003890;28;20200;-73
2023/10/01 09:26:37;;;;;;;5.77;1.70;;;;;;;18.90;56.39;101837.72;5004101;28;20204;-73
2023/10/01 09:29:13;;;;;;;4.00;1.47;;;;;;;19.01;55.64;101846.75;5004303;28;20227;-73
2023/10/01 09:31:52;;;;;;;4.13;1.80;;;;;;;19.12;55.11;101837.03;5005319;28;20518;-73
2023/10/01 09:34:31;;;;;;;3.90;1.77;;;;;;;19.23;57.25;101839.94;5001487;28;21219;-73
2023/10/01 09:37:03;;;;;;;4.90;1.90;;;;;;;19.31;52.99;101842.41;5006203;28;20204;-73
2023/10/01 09:39:38;;;;;;;6.50;1.63;;;;;;;19.40;52.16;101829.56;5002682;28;21167;-73
2023/10/01 09:42:22;;;;;;;6.93;1.97;;;;;;;19.48;52.20;101838.50;5002268;28;20199;-73
2023/10/01 09:44:52;;;;;;;5.33;1.47;;;;;;;19.56;51.80;101843.66;5002138;28;20253;-73
2023/10/01 09:47:23;;;;;;;4.87;1.80;;;;;;;19.67;52.46;101835.81;5003040;28;20208;-73
2023/10/01 09:49:52;;;;;;;4.67;1.57;;;;;;;19.76;51.42;101844.41;5001713;28;20216;-73
2023/10/01 09:52:27;;;;;;;4.73;1.60;;;;;;;19.82;52.32;101849.09;4984627;28;20223;-73
2023/10/01 09:55:01;;;;;;;3.73;1.43;;;;;;;19.89;51.93;101846.56;5001080;28;21100;-73
2023/10/01 09:57:34;;;;;;;3.97;1.50;;;;;;;19.96;52.04;101848.56;5003567;28;22463;-73
2023/10/01 10:00:14;;;;;;;3.87;1.70;;;;;;;20.05;51.57;101854.47;5004161;28;20748;-73
2023/10/01 10:02:51;;;;;;;5.43;1.90;;;;;;;20.13;50.76;101843.53;5000269;28;20289;-73
2023/10/01 10:05:28;;;;;;;7.97;2.17;;;;;;;20.18;51.11;101851.25;5001665;28;20212;-73
2023/10/01 10:08:13;;;;;;;4.07;2.07;;;;;;;20.25;52.87;101842.56;5002580;28;20574;-73
2023/10/01 10:10:48;;;;;;;3.50;1.70;;;;;;;20.27;51.04;101838.38;5001681;28;20602;-73
2023/10/01 10:13:36;;;;;;;4.57;2.13;;;;;;;20.28;51.45;101831.88;5001482;28;20295;-73
2023/10/01 10:16:29;;;;;;;7.93;2.17;;;;;;;20.28;50.80;101831.13;4983345;28;20219;-73
2023/10/01 10:19:09;;;;;;;3.77;2.10;;;;;;;20.30;53.27;101826.94;5001962;28;20325;-73
2023/10/01 10:22:10;;;;;;;4.20;1.60;;;;;;;20.34;50.81;101827.75;5000012;28;20214;-73
2023/10/01 10:24:45;;;;;;;4.33;1.93;;;;;;;20.39;51.65;101821.31;5002362;28;20211;-73
2023/10/01 10:27:15;;;;;;;3.73;2.10;;;;;;;20.44;52.68;101819.09;4983415;28;20570;-73
2023/10/01 10:30:14;;;;;;;4.77;2.10;;;;;;;20.49;50.27;101816.09;4980041;28;20227;-73
2023/10/01 10:33:01;;;;;;;6.17;2.03;;;;;;;20.54;52.81;101820.41;5002909;28;20287;-73
2023/10/01 10:35:29;;;;;;;4.47;2.00;;;;;;;20.58;49.67;101818.50;5000757;28;20196;-72
2023/10/01 10:37:55;;;;;;;5.47;2.10;;;;;;;20.55;47.23;101811.22;4998835;28;20200;-73
2023/10/01 10:40:26;;;;;;;7.73;2.10;;;;;;;20.60;49.01;101816.25;5000917;28;20754;-73
2023/10/01 10:43:16;;;;;;;4.07;1.90;;;;;;;20.65;48.56;101815.94;5000763;28;20204;-73
2023/10/01 10:45:57;;;;;;;5.70;2.10;;;;;;;20.71;47.83;101809.13;5000564;28;20646;-73
2023/10/01 10:48:59;;;;;;;4.27;1.90;;;;;;;20.70;47.24;101808.34;4997944;28;21064;-73
2023/10/01 10:51:47;;;;;;;4.23;2.00;;;;;;;20.76;49.00;101814.16;5000652;28;20207;-73
2023/10/01 10:54:26;;;;;;;4.83;1.80;;;;;;;20.84;47.17;101818.47;4998992;28;20204;-73
2023/10/01 10:56:53;;;;;;;4.50;2.00;;;;;;;20.89;47.58;101824.34;5000423;28;20211;-74
2023/10/01 10:59:19;;;;;;;5.60;2.40;;;;;;;20.96;47.74;101821.75;4991139;28;20234;-73
2023/10/01 11:01:47;;;;;;;6.30;2.40;;;;;;;20.98;47.34;101821.38;4997696;28;20654;-72
2023/10/01 11:04:16;;;;;;;5.63;2.23;;;;;;;21.08;50.15;101823.44;4980555;28;20219;-73
2023/10/01 11:06:43;;;;;;;9.40;2.13;;;;;;;21.13;45.95;101833.84;4999700;28;20214;-73
2023/10/01 11:09:22;;;;;;;3.93;2.00;;;;;;;21.24;46.28;101832.06;4997311;28;20815;-73
2023/10/01 11:11:50;;;;;;;4.20;2.07;;;;;;;21.29;46.39;101837.88;4997840;28;20211;-73
2023/10/01 11:14:16;;;;;;;3.90;2.13;;;;;;;21.36;45.56;101827.22;4995672;28;20924;-73
2023/10/01 11:16:44;;;;;;;4.20;2.00;;;;;;;21.29;45.06;101832.50;4997563;28;20598;-73
2023/10/01 11:19:16;;;;;;;4.27;1.93;;;;;;;21.32;45.11;101836.38;4999943;28;20352;-73
2023/10/01 11:21:54;;;;;;;6.47;2.30;;;;;;;21.35;45.95;101830.25;4995259;28;20746;-73
2023/10/01 11:24:22;;;;;;;3.07;1.97;;;;;;;21.40;46.39;101828.03;4995822;28;20669;-73
2023/10/01 11:27:14;;;;;;;3.20;1.80;;;;;;;21.45;46.59;101830.38;5000983;28;20830;-73
2023/10/01 11:29:41;;;;;;;3.70;2.47;;;;;;;21.46;45.82;101815.78;4996671;28;20346;-73
2023/10/01 11:32:08;;;;;;;7.23;2.17;;;;;;;21.49;45.53;101815.06;4997282;28;20223;-72
2023/10/01 11:34:44;;;;;;;4.33;1.90;;;;;;;21.53;47.08;101817.78;4997096;28;20200;-73
2023/10/01 11:37:19;;;;;;;7.03;2.13;;;;;;;21.52;45.03;101811.63;4999293;28;20203;-73
2023/10/01 11:39:50;;;;;;;4.93;1.92;;;;;;;21.54;45.80;101806.69;4998436;28;20677;-73
2023/10/01 11:42:35;;;;;;;4.87;1.90;;;;;;;21.50;44.99;101799.69;4996341;28;20326;-73
2023/10/01 11:45:28;;;;;;;6.00;1.85;;;;;;;21.51;45.17;101804.72;4998122;28;20230;-73
2023/10/01 11:48:05;;;;;;;5.93;1.83;;;;;;;21.48;44.62;101799.31;4998703;28;20306;-73
2023/10/01 11:50:32;;;;;;;5.13;1.80;;;;;;;21.47;44.88;101798.53;4997773;28;20220;-73
2023/10/01 11:53:06;;;;;;;3.83;1.70;;;;;;;21.46;44.44;101791.59;4990874;28;20312;-73
2023/10/01 11:55:33;;;;;;;6.20;1.93;;;;;;;21.51;46.18;101795.88;5000106;28;20869;-73